createdAt,value
2023-05-23T00:01:47.104Z,21.40
2023-05-23T00:04:17.315Z,21.40
2023-05-23T00:06:47.053Z,21.40
2023-05-23T00:09:14.638Z,21.50
2023-05-23T00:11:45.080Z,21.40
2023-05-23T00:14:15.634Z,21.40
2023-05-23T00:16:44.840Z,21.40
2023-05-23T00:19:14.810Z,21.40
2023-05-23T00:21:56.773Z,21.40
2023-05-23T00:24:23.514Z,21.50
2023-05-23T00:26:50.189Z,21.40
2023-05-23T00:29:17.605Z,21.40
2023-05-23T00:31:46.412Z,21.40
2023-05-23T00:34:19.565Z,21.40
2023-05-23T00:36:47.772Z,21.40
2023-05-23T00:39:19.534Z,21.40
2023-05-23T00:41:51.155Z,21.40
2023-05-23T00:44:19.956Z,21.40
2023-05-23T00:46:52.166Z,21.40
2023-05-23T00:49:20.163Z,21.50
2023-05-23T00:51:49.343Z,21.40
2023-05-23T00:54:21.041Z,21.40
2023-05-23T00:56:48.634Z,21.40
2023-05-23T00:59:15.886Z,21.40
2023-05-23T01:01:44.201Z,21.40
2023-05-23T01:04:11.724Z,21.40
2023-05-23T01:06:38.475Z,21.50
2023-05-23T01:09:05.362Z,21.40
2023-05-23T01:11:56.383Z,21.40
2023-05-23T01:14:35.207Z,21.40
2023-05-23T01:17:11.564Z,21.40
2023-05-23T01:20:04.428Z,21.40
2023-05-23T01:23:01.861Z,21.40
2023-05-23T01:26:03.321Z,21.50
2023-05-23T01:28:37.143Z,21.40
2023-05-23T01:31:05.428Z,21.40
2023-05-23T01:33:33.445Z,21.40
2023-05-23T01:36:03.734Z,21.40
2023-05-23T01:38:30.669Z,21.40
2023-05-23T01:40:57.568Z,21.40
2023-05-23T01:43:25.385Z,21.40
2023-05-23T01:45:54.281Z,21.40
2023-05-23T01:48:22.572Z,21.40
2023-05-23T01:50:49.551Z,21.40
2023-05-23T01:53:19.239Z,21.40
2023-05-23T01:55:46.660Z,21.40
2023-05-23T01:58:13.390Z,21.40
2023-05-23T02:00:40.100Z,21.40
2023-05-23T02:03:07.089Z,21.40
2023-05-23T02:05:33.861Z,21.40
2023-05-23T02:08:00.727Z,21.40
2023-05-23T02:10:27.468Z,21.40
2023-05-23T02:12:54.095Z,21.40
2023-05-23T02:15:20.942Z,21.40
2023-05-23T02:17:48.291Z,21.40
2023-05-23T02:20:15.256Z,21.40
2023-05-23T02:22:41.912Z,21.40
2023-05-23T02:25:08.740Z,21.40
2023-05-23T02:27:35.657Z,21.40
2023-05-23T02:30:02.515Z,21.30
2023-05-23T02:32:30.093Z,21.40
2023-05-23T02:34:57.578Z,21.40
2023-05-23T02:37:24.399Z,21.40
2023-05-23T02:39:51.029Z,21.40
2023-05-23T02:42:17.712Z,21.40
2023-05-23T02:44:44.809Z,21.40
2023-05-23T02:47:11.630Z,21.40
2023-05-23T02:49:38.278Z,21.40
2023-05-23T02:52:05.218Z,21.40
2023-05-23T02:54:31.937Z,21.40
2023-05-23T02:56:59.341Z,21.40
2023-05-23T02:59:26.731Z,21.40
2023-05-23T03:01:53.658Z,22.50
2023-05-23T03:04:21.326Z,21.40
2023-05-23T03:06:48.370Z,21.40
2023-05-23T03:09:16.985Z,21.40
2023-05-23T03:11:44.007Z,21.40
2023-05-23T03:14:10.794Z,21.30
2023-05-23T03:16:37.553Z,21.40
2023-05-23T03:19:04.653Z,21.40
2023-05-23T03:21:32.617Z,21.30
2023-05-23T03:23:59.237Z,21.40
2023-05-23T03:26:25.956Z,21.30
2023-05-23T03:28:52.744Z,21.40
2023-05-23T03:31:19.426Z,21.40
2023-05-23T03:33:46.047Z,21.30
2023-05-23T03:36:13.074Z,21.40
2023-05-23T03:38:39.688Z,21.40
2023-05-23T03:41:06.441Z,21.40
2023-05-23T03:43:33.103Z,21.40
2023-05-23T03:45:59.837Z,21.40
2023-05-23T03:48:26.718Z,21.30
2023-05-23T03:50:53.445Z,21.40
2023-05-23T03:53:20.245Z,21.40
2023-05-23T03:55:46.888Z,21.30
2023-05-23T03:58:13.510Z,21.40
2023-05-23T04:00:40.833Z,21.40
2023-05-23T04:03:08.724Z,21.40
2023-05-23T04:05:35.641Z,21.30
2023-05-23T04:08:02.307Z,21.40
2023-05-23T04:10:28.961Z,21.40
2023-05-23T04:12:56.759Z,21.40
2023-05-23T04:15:27.951Z,21.40
2023-05-23T04:17:54.720Z,21.40
2023-05-23T04:20:21.577Z,21.40
2023-05-23T04:22:48.259Z,21.40
2023-05-23T04:25:15.026Z,21.40
2023-05-23T04:27:41.653Z,21.40
2023-05-23T04:30:11.587Z,21.40
2023-05-23T04:32:38.399Z,21.40
2023-05-23T04:35:05.436Z,21.40
2023-05-23T04:37:32.955Z,21.40
2023-05-23T04:40:02.987Z,21.50
2023-05-23T04:42:30.447Z,21.40
2023-05-23T04:45:02.122Z,21.40
2023-05-23T04:47:29.253Z,21.40
2023-05-23T04:49:57.284Z,21.40
2023-05-23T04:52:24.008Z,21.40
2023-05-23T04:54:50.839Z,21.40
2023-05-23T04:57:17.769Z,21.40
2023-05-23T04:59:44.474Z,21.40
2023-05-23T05:02:11.153Z,21.40
2023-05-23T05:04:37.801Z,21.40
2023-05-23T05:07:05.051Z,21.40
2023-05-23T05:09:31.904Z,21.40
2023-05-23T05:11:59.353Z,21.40
2023-05-23T05:14:27.500Z,21.40
2023-05-23T05:16:57.788Z,21.40
2023-05-23T05:19:24.755Z,21.40
2023-05-23T05:21:52.392Z,21.40
2023-05-23T05:24:20.918Z,21.40
2023-05-23T05:26:48.453Z,22.20
2023-05-23T05:29:15.873Z,21.50
2023-05-23T05:31:45.139Z,21.50
2023-05-23T05:34:12.588Z,21.50
2023-05-23T05:36:45.722Z,21.50
2023-05-23T05:39:13.701Z,21.50
2023-05-23T05:41:40.592Z,21.50
2023-05-23T05:44:08.040Z,21.50
2023-05-23T05:46:34.761Z,21.50
2023-05-23T05:49:01.495Z,21.60
2023-05-23T05:51:28.721Z,21.60
2023-05-23T05:53:55.462Z,21.50
2023-05-23T05:56:22.689Z,21.50
2023-05-23T05:58:49.470Z,21.60
2023-05-23T06:01:16.150Z,21.50
2023-05-23T06:03:43.120Z,21.50
2023-05-23T06:06:10.398Z,21.60
2023-05-23T06:08:37.148Z,21.60
2023-05-23T06:11:03.872Z,21.60
2023-05-23T06:13:30.576Z,21.60
2023-05-23T06:15:58.368Z,21.60
2023-05-23T06:18:25.280Z,21.60
2023-05-23T06:20:52.087Z,21.60
2023-05-23T06:23:18.872Z,21.70
2023-05-23T06:25:45.631Z,21.90
2023-05-23T06:28:12.324Z,21.60
2023-05-23T06:30:39.241Z,21.70
2023-05-23T06:33:06.233Z,21.70
2023-05-23T06:35:32.962Z,21.70
2023-05-23T06:38:01.096Z,21.70
2023-05-23T06:40:27.873Z,21.60
2023-05-23T06:42:54.639Z,21.60
2023-05-23T06:45:21.318Z,21.60
2023-05-23T06:47:49.210Z,21.60
2023-05-23T06:50:19.712Z,21.60
2023-05-23T06:52:49.853Z,21.60
2023-05-23T06:55:19.251Z,21.60
2023-05-23T06:57:47.133Z,21.70
2023-05-23T07:00:14.247Z,21.70
2023-05-23T07:02:41.565Z,21.70
2023-05-23T07:05:08.791Z,21.70
2023-05-23T07:07:35.614Z,21.70
2023-05-23T07:10:02.404Z,21.70
2023-05-23T07:12:29.090Z,21.70
2023-05-23T07:14:55.756Z,21.70
2023-05-23T07:17:22.704Z,21.70
2023-05-23T07:19:49.493Z,21.70
2023-05-23T07:22:16.256Z,21.70
2023-05-23T07:24:42.957Z,21.70
2023-05-23T07:27:09.615Z,21.70
2023-05-23T07:29:36.757Z,21.80
2023-05-23T07:32:03.526Z,21.70
2023-05-23T07:34:30.615Z,21.70
2023-05-23T07:36:57.269Z,21.70
2023-05-23T07:39:24.395Z,21.70
2023-05-23T07:41:51.244Z,21.70
2023-05-23T07:44:20.623Z,21.70
2023-05-23T07:46:48.429Z,21.70
2023-05-23T07:49:15.236Z,21.70
2023-05-23T07:51:41.884Z,21.70
2023-05-23T07:54:08.564Z,21.70
2023-05-23T07:56:35.304Z,21.70
2023-05-23T07:59:02.232Z,21.70
2023-05-23T08:01:29.401Z,21.70
2023-05-23T08:03:56.191Z,21.70
2023-05-23T08:06:26.102Z,21.70
2023-05-23T08:08:53.111Z,21.70
2023-05-23T08:11:19.842Z,21.70
2023-05-23T08:13:46.658Z,21.70
2023-05-23T08:16:13.532Z,21.70
2023-05-23T08:18:40.468Z,21.70
2023-05-23T08:21:07.191Z,21.70
2023-05-23T08:23:33.892Z,21.70
2023-05-23T08:26:00.547Z,21.70
2023-05-23T08:28:27.244Z,21.70
2023-05-23T08:30:54.283Z,21.70
2023-05-23T08:33:20.962Z,21.70
2023-05-23T08:35:47.616Z,21.70
2023-05-23T08:38:14.268Z,21.70
2023-05-23T08:40:43.350Z,21.70
2023-05-23T08:43:12.290Z,21.80
2023-05-23T08:45:39.795Z,21.80
2023-05-23T08:48:10.005Z,21.80
2023-05-23T08:50:40.000Z,21.80
2023-05-23T08:53:08.959Z,21.80
2023-05-23T08:55:37.888Z,21.80
2023-05-23T08:58:04.602Z,21.80
2023-05-23T09:00:32.059Z,21.80
2023-05-23T09:02:59.021Z,21.80
2023-05-23T09:05:28.979Z,21.80
2023-05-23T09:07:56.739Z,21.80
2023-05-23T09:10:23.522Z,21.80
2023-05-23T09:12:50.375Z,22.50
2023-05-23T09:15:17.225Z,21.80
2023-05-23T09:17:45.297Z,21.80
2023-05-23T09:20:14.616Z,21.90
2023-05-23T09:22:45.811Z,21.90
2023-05-23T09:25:12.562Z,21.90
2023-05-23T09:27:39.238Z,21.90
2023-05-23T09:30:10.543Z,21.90
2023-05-23T09:32:37.524Z,21.80
2023-05-23T09:35:06.210Z,21.90
2023-05-23T09:37:37.579Z,21.90
2023-05-23T09:40:12.382Z,21.90
2023-05-23T09:42:46.060Z,21.80
2023-05-23T09:45:13.681Z,21.80
2023-05-23T09:47:51.767Z,21.80
2023-05-23T09:50:18.921Z,21.80
2023-05-23T09:52:46.692Z,21.80
2023-05-23T09:55:16.300Z,21.90
2023-05-23T09:57:44.070Z,21.90
2023-05-23T10:00:13.519Z,23.00
2023-05-23T10:02:49.070Z,21.90
2023-05-23T10:05:31.420Z,21.90
2023-05-23T10:08:03.105Z,21.80
2023-05-23T10:10:33.851Z,21.80
2023-05-23T10:13:05.588Z,21.90
2023-05-23T10:15:38.862Z,21.80
2023-05-23T10:18:10.721Z,21.80
2023-05-23T10:20:40.394Z,21.90
2023-05-23T10:23:07.539Z,21.80
2023-05-23T10:25:36.937Z,21.80
2023-05-23T10:28:04.791Z,21.90
2023-05-23T10:30:31.624Z,21.80
2023-05-23T10:32:59.972Z,21.80
2023-05-23T10:36:11.788Z,21.90
2023-05-23T10:38:46.311Z,21.90
2023-05-23T10:41:26.075Z,21.90
2023-05-23T10:44:12.945Z,21.90
2023-05-23T10:47:02.162Z,21.90
2023-05-23T10:50:02.800Z,21.90
2023-05-23T10:52:40.564Z,21.90
2023-05-23T10:55:15.240Z,22.00
2023-05-23T10:57:43.768Z,21.90
2023-05-23T11:00:16.728Z,21.90
2023-05-23T11:03:00.278Z,22.00
2023-05-23T11:05:31.924Z,22.00
2023-05-23T11:08:14.926Z,22.00
2023-05-23T11:11:00.881Z,22.00
2023-05-23T11:13:55.314Z,22.00
2023-05-23T11:16:32.401Z,22.00
2023-05-23T11:19:24.762Z,22.00
2023-05-23T11:21:55.547Z,22.00
2023-05-23T11:24:23.191Z,22.00
2023-05-23T11:27:01.248Z,22.00
2023-05-23T11:29:29.039Z,22.00
2023-05-23T11:31:56.846Z,22.00
2023-05-23T11:34:26.310Z,22.00
2023-05-23T11:36:57.171Z,22.00
2023-05-23T11:39:24.158Z,22.00
2023-05-23T11:42:01.010Z,22.00
2023-05-23T11:44:27.934Z,22.00
2023-05-23T11:47:06.172Z,22.00
2023-05-23T11:49:36.469Z,22.10
2023-05-23T11:52:03.975Z,22.10
2023-05-23T11:54:30.870Z,22.10
2023-05-23T11:56:57.761Z,22.10
2023-05-23T11:59:26.317Z,22.10
2023-05-23T12:01:53.273Z,22.10
2023-05-23T12:04:20.128Z,22.10
2023-05-23T12:06:48.552Z,22.20
2023-05-23T12:09:15.759Z,22.20
2023-05-23T12:11:43.913Z,22.20
2023-05-23T12:14:16.258Z,22.10
2023-05-23T12:16:48.373Z,22.10
2023-05-23T12:19:17.254Z,22.30
2023-05-23T12:21:46.908Z,22.10
2023-05-23T12:24:21.524Z,22.10
2023-05-23T12:26:52.395Z,22.10
2023-05-23T12:29:21.028Z,22.10
2023-05-23T12:31:51.567Z,22.10
2023-05-23T12:34:20.228Z,22.10
2023-05-23T12:36:50.694Z,22.10
2023-05-23T12:39:28.443Z,22.10
2023-05-23T12:41:58.679Z,22.10
2023-05-23T12:44:31.681Z,22.10
2023-05-23T12:46:58.530Z,22.10
2023-05-23T12:49:25.802Z,22.10
2023-05-23T12:51:52.484Z,22.10
2023-05-23T12:54:19.380Z,22.00
2023-05-23T12:56:46.108Z,22.00
2023-05-23T12:59:12.742Z,22.00
2023-05-23T13:01:39.639Z,22.00
2023-05-23T13:04:06.343Z,22.00
2023-05-23T13:06:33.370Z,22.00
2023-05-23T13:09:00.463Z,22.00
2023-05-23T13:11:27.296Z,22.00
2023-05-23T13:13:53.950Z,22.00
2023-05-23T13:16:20.728Z,22.00
2023-05-23T13:18:47.414Z,22.00
2023-05-23T13:21:14.232Z,22.00
2023-05-23T13:23:41.071Z,22.00
2023-05-23T13:26:07.896Z,22.00
2023-05-23T13:28:34.661Z,22.00
2023-05-23T13:31:03.321Z,22.00
2023-05-23T13:33:30.066Z,22.00
2023-05-23T13:35:57.141Z,22.00
2023-05-23T13:38:25.458Z,22.00
2023-05-23T13:40:54.122Z,22.00
2023-05-23T13:43:20.949Z,22.00
2023-05-23T13:45:47.827Z,22.00
2023-05-23T13:48:14.496Z,22.00
2023-05-23T13:50:42.305Z,22.00
2023-05-23T13:53:14.983Z,22.10
2023-05-23T13:55:41.661Z,22.10
2023-05-23T13:58:08.684Z,22.00
2023-05-23T14:00:35.494Z,22.00
2023-05-23T14:03:03.410Z,22.00
2023-05-23T14:05:30.154Z,22.00
2023-05-23T14:07:56.892Z,22.10
2023-05-23T14:10:23.664Z,22.00
2023-05-23T14:12:50.666Z,22.00
2023-05-23T14:15:18.254Z,22.00
2023-05-23T14:17:45.027Z,22.00
2023-05-23T14:20:12.035Z,22.00
2023-05-23T14:22:39.071Z,22.00
2023-05-23T14:25:06.481Z,22.00
2023-05-23T14:27:34.391Z,22.00
2023-05-23T14:30:01.066Z,22.00
2023-05-23T14:32:27.848Z,22.00
2023-05-23T14:34:57.362Z,22.00
2023-05-23T14:37:24.082Z,22.00
2023-05-23T14:39:50.760Z,22.00
2023-05-23T14:42:17.485Z,22.00
2023-05-23T14:44:44.294Z,23.10
2023-05-23T14:47:10.940Z,22.00
2023-05-23T14:49:37.709Z,22.00
2023-05-23T14:52:04.639Z,22.00
2023-05-23T14:54:31.724Z,22.00
2023-05-23T14:56:58.388Z,22.10
2023-05-23T14:59:25.211Z,22.00
2023-05-23T15:01:51.940Z,22.00
2023-05-23T15:04:19.159Z,22.00
2023-05-23T15:06:47.116Z,22.00
2023-05-23T15:09:13.812Z,22.10
2023-05-23T15:11:42.242Z,22.10
2023-05-23T15:14:08.964Z,22.10
2023-05-23T15:16:36.685Z,22.10
2023-05-23T15:19:05.582Z,22.10
2023-05-23T15:21:32.424Z,22.10
2023-05-23T15:23:59.763Z,22.10
2023-05-23T15:26:27.273Z,23.30
2023-05-23T15:28:54.054Z,22.10
2023-05-23T15:31:21.311Z,22.10
2023-05-23T15:33:48.078Z,22.10
2023-05-23T15:36:14.841Z,22.10
2023-05-23T15:38:41.548Z,22.10
2023-05-23T15:41:08.319Z,22.00
2023-05-23T15:43:35.351Z,22.10
2023-05-23T15:46:02.694Z,22.10
2023-05-23T15:48:29.659Z,22.10
2023-05-23T15:50:56.580Z,22.10
2023-05-23T15:53:23.332Z,22.10
2023-05-23T15:55:50.175Z,22.00
2023-05-23T15:58:16.933Z,22.10
2023-05-23T16:00:43.760Z,22.10
2023-05-23T16:03:10.603Z,22.00
2023-05-23T16:05:37.281Z,22.00
2023-05-23T16:08:04.171Z,22.10
2023-05-23T16:10:30.878Z,22.10
2023-05-23T16:12:57.633Z,22.10
2023-05-23T16:15:24.283Z,21.90
2023-05-23T16:17:50.976Z,22.00
2023-05-23T16:20:17.731Z,22.00
2023-05-23T16:22:45.739Z,22.00
2023-05-23T16:25:12.603Z,22.00
2023-05-23T16:27:40.373Z,22.00
2023-05-23T16:30:07.665Z,22.00
2023-05-23T16:32:34.611Z,22.00
2023-05-23T16:35:01.403Z,22.00
2023-05-23T16:37:28.086Z,22.00
2023-05-23T16:39:54.790Z,22.00
2023-05-23T16:42:22.235Z,22.00
2023-05-23T16:44:49.014Z,22.00
2023-05-23T16:47:15.790Z,22.10
2023-05-23T16:49:42.477Z,22.20
2023-05-23T16:52:09.154Z,22.30
2023-05-23T16:54:36.047Z,22.80
2023-05-23T16:57:02.782Z,22.20
2023-05-23T16:59:29.907Z,22.10
2023-05-23T17:01:57.048Z,22.30
2023-05-23T17:04:23.892Z,22.30
2023-05-23T17:06:50.768Z,22.30
2023-05-23T17:09:18.045Z,22.40
2023-05-23T17:11:44.973Z,22.40
2023-05-23T17:14:11.803Z,22.50
2023-05-23T17:16:38.819Z,22.40
2023-05-23T17:19:05.838Z,22.20
2023-05-23T17:21:32.832Z,22.20
2023-05-23T17:23:59.559Z,22.10
2023-05-23T17:26:27.347Z,22.10
2023-05-23T17:28:54.112Z,22.00
2023-05-23T17:31:21.355Z,22.00
2023-05-23T17:33:48.073Z,22.00
2023-05-23T17:36:14.737Z,22.10
2023-05-23T17:38:41.672Z,22.00
2023-05-23T17:41:08.310Z,22.00
2023-05-23T17:43:34.940Z,22.00
2023-05-23T17:46:01.573Z,22.00
2023-05-23T17:48:42.601Z,22.00
2023-05-23T17:51:14.039Z,22.00
2023-05-23T17:53:41.609Z,21.90
2023-05-23T17:56:09.226Z,21.90
2023-05-23T17:58:40.927Z,22.00
2023-05-23T18:01:09.252Z,22.00
2023-05-23T18:03:35.930Z,21.90
2023-05-23T18:06:02.572Z,22.00
2023-05-23T18:08:29.240Z,22.10
2023-05-23T18:10:56.037Z,22.10
2023-05-23T18:13:22.964Z,22.00
2023-05-23T18:15:49.718Z,22.00
2023-05-23T18:18:16.873Z,21.90
2023-05-23T18:20:44.122Z,21.90
2023-05-23T18:23:12.029Z,21.90
2023-05-23T18:25:38.795Z,21.90
2023-05-23T18:28:05.603Z,21.90
2023-05-23T18:30:33.269Z,21.90
2023-05-23T18:33:00.095Z,21.90
2023-05-23T18:35:26.820Z,22.00
2023-05-23T18:37:54.268Z,21.90
2023-05-23T18:40:23.636Z,21.90
2023-05-23T18:42:50.616Z,21.90
2023-05-23T18:45:17.463Z,21.90
2023-05-23T18:47:44.668Z,21.90
2023-05-23T18:50:12.987Z,21.90
2023-05-23T18:52:39.978Z,21.90
2023-05-23T18:55:07.497Z,21.90
2023-05-23T18:57:34.156Z,21.90
2023-05-23T19:00:01.884Z,21.90
2023-05-23T19:02:28.659Z,21.90
2023-05-23T19:04:55.482Z,21.90
2023-05-23T19:07:22.205Z,21.90
2023-05-23T19:09:48.985Z,21.90
2023-05-23T19:12:16.087Z,21.90
2023-05-23T19:14:42.737Z,22.00
2023-05-23T19:17:09.431Z,21.90
2023-05-23T19:19:37.501Z,21.90
2023-05-23T19:22:04.631Z,21.90
2023-05-23T19:24:31.972Z,21.90
2023-05-23T19:26:58.658Z,21.90
2023-05-23T19:29:25.878Z,21.90
2023-05-23T19:31:52.743Z,21.90
2023-05-23T19:34:19.485Z,21.90
2023-05-23T19:36:46.156Z,21.90
2023-05-23T19:39:12.769Z,21.90
2023-05-23T19:41:41.229Z,21.90
2023-05-23T19:44:08.852Z,21.80
2023-05-23T19:46:35.587Z,21.80
2023-05-23T19:49:02.329Z,21.80
2023-05-23T19:51:29.102Z,21.80
2023-05-23T19:53:55.783Z,21.80
2023-05-23T19:56:22.829Z,21.80
2023-05-23T19:58:49.551Z,21.80
2023-05-23T20:01:16.382Z,21.80
2023-05-23T20:03:43.126Z,21.80
2023-05-23T20:06:10.056Z,21.80
2023-05-23T20:08:36.729Z,21.80
2023-05-23T20:11:03.426Z,21.80
2023-05-23T20:13:30.206Z,21.80
2023-05-23T20:15:56.907Z,21.80
2023-05-23T20:18:23.621Z,21.80
2023-05-23T20:20:50.453Z,21.80
2023-05-23T20:23:17.189Z,21.80
2023-05-23T20:25:43.949Z,21.80
2023-05-23T20:28:11.030Z,21.80
2023-05-23T20:30:37.690Z,21.70
2023-05-23T20:33:04.490Z,21.80
2023-05-23T20:35:31.257Z,21.80
2023-05-23T20:37:58.512Z,21.80
2023-05-23T20:40:26.882Z,21.80
2023-05-23T20:42:53.645Z,21.80
2023-05-23T20:45:20.421Z,21.80
2023-05-23T20:47:47.296Z,21.70
2023-05-23T20:50:14.749Z,21.70
2023-05-23T20:52:42.895Z,21.70
2023-05-23T20:55:10.654Z,21.70
2023-05-23T20:57:37.559Z,21.70
2023-05-23T21:00:13.974Z,21.80
2023-05-23T21:02:41.620Z,21.70
2023-05-23T21:05:09.523Z,21.70
2023-05-23T21:07:36.652Z,21.70
2023-05-23T21:10:04.192Z,21.70
2023-05-23T21:12:30.934Z,21.70
2023-05-23T21:14:57.613Z,21.70
2023-05-23T21:17:24.692Z,21.70
2023-05-23T21:19:51.720Z,21.70
2023-05-23T21:22:18.396Z,21.70
2023-05-23T21:24:45.228Z,21.70
2023-05-23T21:27:12.356Z,21.70
2023-05-23T21:29:38.986Z,21.70
2023-05-23T21:32:05.658Z,21.70
2023-05-23T21:34:32.369Z,21.70
2023-05-23T21:36:59.055Z,21.70
2023-05-23T21:39:27.407Z,21.70
2023-05-23T21:42:00.316Z,21.70
2023-05-23T21:44:26.992Z,21.70
2023-05-23T21:46:53.747Z,21.70
2023-05-23T21:49:20.496Z,21.70
2023-05-23T21:51:47.159Z,21.70
2023-05-23T21:54:13.923Z,21.70
2023-05-23T21:56:40.999Z,21.70
2023-05-23T21:59:08.182Z,21.70
2023-05-23T22:01:35.556Z,21.70
2023-05-23T22:04:02.422Z,21.10
2023-05-23T22:06:29.226Z,21.60
2023-05-23T22:08:55.904Z,21.70
2023-05-23T22:11:22.559Z,21.70
2023-05-23T22:13:49.315Z,21.60
2023-05-23T22:16:16.082Z,21.60
2023-05-23T22:18:51.396Z,21.70
2023-05-23T22:21:18.744Z,21.70
2023-05-23T22:23:45.564Z,21.60
2023-05-23T22:26:12.726Z,21.70
2023-05-23T22:28:39.583Z,21.70
2023-05-23T22:31:06.563Z,21.60
2023-05-23T22:33:33.305Z,21.60
2023-05-23T22:36:00.011Z,21.60
2023-05-23T22:38:26.774Z,21.60
2023-05-23T22:40:53.443Z,21.60
2023-05-23T22:43:21.659Z,21.60
2023-05-23T22:45:50.019Z,21.60
2023-05-23T22:48:19.953Z,21.60
2023-05-23T22:50:46.865Z,21.60
2023-05-23T22:53:16.490Z,21.60
2023-05-23T22:55:43.211Z,21.60
2023-05-23T22:58:09.995Z,21.60
2023-05-23T23:00:37.542Z,21.60
2023-05-23T23:03:04.542Z,21.60
2023-05-23T23:05:31.427Z,21.60
2023-05-23T23:07:58.068Z,21.60
2023-05-23T23:10:24.927Z,21.60
2023-05-23T23:12:51.564Z,21.60
2023-05-23T23:15:18.235Z,21.60
2023-05-23T23:17:45.136Z,21.60
2023-05-23T23:20:12.784Z,21.60
2023-05-23T23:22:40.011Z,21.60
2023-05-23T23:25:10.522Z,21.60
2023-05-23T23:27:38.327Z,21.60
2023-05-23T23:30:06.489Z,21.60
2023-05-23T23:32:34.362Z,21.60
2023-05-23T23:35:01.414Z,21.60
2023-05-23T23:37:28.156Z,21.60
2023-05-23T23:39:54.791Z,21.60
2023-05-23T23:42:21.547Z,21.60
2023-05-23T23:44:48.310Z,21.60
2023-05-23T23:47:15.002Z,21.60
2023-05-23T23:49:42.239Z,21.50
2023-05-23T23:52:09.107Z,21.60
2023-05-23T23:54:35.949Z,21.60
2023-05-23T23:57:02.572Z,21.60
2023-05-23T23:59:29.193Z,21.60
